createdAt,value
2022-11-16T00:00:58.060Z,35.7
2022-11-16T00:03:01.182Z,29.6
2022-11-16T00:05:04.307Z,29.5
2022-11-16T00:07:07.567Z,21.3
2022-11-16T00:09:10.571Z,22.7
2022-11-16T00:11:13.695Z,27.1
2022-11-16T00:13:16.833Z,33.4
2022-11-16T00:15:23.150Z,39.7
2022-11-16T00:17:26.282Z,30.5
2022-11-16T00:19:29.428Z,28
2022-11-16T00:21:32.589Z,28.7
2022-11-16T00:23:35.694Z,38.8
2022-11-16T00:25:38.838Z,27.5
2022-11-16T00:27:41.963Z,31.1
2022-11-16T00:34:57.741Z,31.5
2022-11-16T00:37:00.863Z,28.3
2022-11-16T00:39:03.994Z,36.9
2022-11-16T00:41:07.137Z,37.8
2022-11-16T00:43:13.489Z,41.9
2022-11-16T00:45:16.615Z,41.9
2022-11-16T00:47:19.734Z,23.7
2022-11-16T00:49:22.872Z,35.6
2022-11-16T00:51:26.001Z,26.4
2022-11-16T00:53:29.150Z,26.8
2022-11-16T00:55:32.280Z,33.8
2022-11-16T00:59:41.760Z,30.9
2022-11-16T01:01:44.949Z,28.8
2022-11-16T01:07:54.308Z,24.9
2022-11-16T01:09:57.463Z,30.3
2022-11-16T01:12:03.774Z,27.8
2022-11-16T01:14:06.923Z,25.7
2022-11-16T01:18:13.192Z,23.3
2022-11-16T01:20:16.342Z,24.4
2022-11-16T01:24:22.592Z,28.1
2022-11-16T01:26:28.942Z,34.6
2022-11-16T01:28:32.463Z,32.4
2022-11-16T01:30:35.201Z,29.1
2022-11-16T01:32:59.497Z,34.8
2022-11-16T01:35:02.604Z,30.6
2022-11-16T01:37:05.763Z,22.9
2022-11-16T01:39:12.105Z,29.3
2022-11-16T01:41:15.223Z,24.9
2022-11-16T01:43:18.380Z,19.6
2022-11-16T01:47:24.660Z,21.4
2022-11-16T01:49:27.811Z,25.2
2022-11-16T01:55:40.421Z,30.8
2022-11-16T01:57:43.545Z,27.5
2022-11-16T01:59:46.689Z,29.5
2022-11-16T02:01:49.801Z,34
2022-11-16T02:08:02.456Z,23.2
2022-11-16T02:14:11.835Z,26.5
2022-11-16T02:26:33.834Z,17.4
2022-11-16T02:27:37.014Z,15.8
2022-11-16T02:29:40.130Z,21.7
2022-11-16T02:31:43.275Z,18
2022-11-16T02:33:46.423Z,18.5
2022-11-16T02:35:52.763Z,20.7
2022-11-16T02:37:55.866Z,14.8
2022-11-16T02:39:59.022Z,22.9
2022-11-16T02:42:02.133Z,25.6
2022-11-16T02:44:05.264Z,23.3
2022-11-16T02:46:08.422Z,15.5
2022-11-16T02:48:11.560Z,16.8
2022-11-16T02:50:17.916Z,17.4
2022-11-16T02:52:21.036Z,27.4
2022-11-16T02:54:24.154Z,28.2
2022-11-16T02:56:27.303Z,20.1
2022-11-16T02:58:30.606Z,17.7
2022-11-16T03:00:33.609Z,17.2
2022-11-16T03:02:36.721Z,20.2
2022-11-16T03:04:43.054Z,22.5
2022-11-16T03:06:46.179Z,25.1
2022-11-16T03:08:49.332Z,22.7
2022-11-16T03:10:52.484Z,22.5
2022-11-16T03:12:55.572Z,21.3
2022-11-16T03:14:58.735Z,20.8
2022-11-16T03:17:01.838Z,17.9
2022-11-16T03:23:14.433Z,24.7
2022-11-16T03:24:17.623Z,18.9
2022-11-16T03:26:20.735Z,23.3
2022-11-16T03:28:23.886Z,21.6
2022-11-16T03:30:27.071Z,26.8
2022-11-16T03:32:33.366Z,22.4
2022-11-16T03:38:42.780Z,20.6
2022-11-16T03:42:48.997Z,21.8
2022-11-16T03:44:52.144Z,21
2022-11-16T03:46:58.505Z,20.2
2022-11-16T03:49:01.613Z,22.7
2022-11-16T03:51:04.728Z,27.3
2022-11-16T03:53:07.885Z,24.9
2022-11-16T03:55:10.996Z,19.6
2022-11-16T03:57:14.110Z,22.9
2022-11-16T03:59:17.261Z,27.9
2022-11-16T04:01:23.668Z,25.2
2022-11-16T04:05:29.855Z,26.6
2022-11-16T04:11:39.260Z,31
2022-11-16T04:13:43.969Z,28.5
2022-11-16T04:15:50.261Z,34.1
2022-11-16T04:17:53.387Z,29.9
2022-11-16T04:19:58.316Z,33.8
2022-11-16T04:23:02.808Z,30.7
2022-11-16T04:27:09.063Z,35.2
2022-11-16T04:29:15.383Z,31.2
2022-11-16T04:31:18.540Z,29
2022-11-16T04:33:21.662Z,37.7
2022-11-16T04:35:24.806Z,28.7
2022-11-16T04:37:27.942Z,27.2
2022-11-16T04:39:31.072Z,19
2022-11-16T04:43:40.518Z,20.5
2022-11-16T04:45:43.670Z,19.5
2022-11-16T04:47:46.791Z,15.7
2022-11-16T04:49:49.949Z,12.8
2022-11-16T04:51:53.040Z,14.6
2022-11-16T04:53:56.167Z,16
2022-11-16T04:56:00.906Z,11.4
2022-11-16T04:58:05.642Z,17.6
2022-11-16T05:00:08.778Z,10.7
2022-11-16T05:02:11.912Z,13.5
2022-11-16T05:04:15.047Z,15.5
2022-11-16T05:06:18.176Z,16.1
2022-11-16T05:08:21.297Z,13.1
2022-11-16T05:10:24.449Z,12.8
2022-11-16T05:12:30.794Z,19.8
2022-11-16T05:14:33.914Z,9.4
2022-11-16T05:16:37.049Z,10.9
2022-11-16T05:21:10.001Z,12.4
2022-11-16T05:23:13.112Z,10.9
2022-11-16T05:25:19.471Z,16.4
2022-11-16T05:27:22.597Z,17.5
2022-11-16T05:31:28.844Z,8.9
2022-11-16T05:33:31.990Z,13.5
2022-11-16T05:37:38.245Z,9.2
2022-11-16T05:39:44.581Z,7.3
2022-11-16T05:41:47.731Z,14
2022-11-16T05:43:50.861Z,26.1
2022-11-16T05:45:53.973Z,11.3
2022-11-16T05:50:00.226Z,11.1
2022-11-16T05:52:03.351Z,11.4
2022-11-16T05:54:09.697Z,19.7
2022-11-16T05:56:12.891Z,17
2022-11-16T05:58:15.951Z,22.4
2022-11-16T06:00:19.082Z,9.8
2022-11-16T06:02:22.218Z,12.1
2022-11-16T06:04:25.317Z,6.6
2022-11-16T06:06:28.476Z,12.1
2022-11-16T06:08:35.181Z,17.8
2022-11-16T06:10:37.952Z,11.6
2022-11-16T06:12:41.063Z,28.6
2022-11-16T06:13:44.269Z,12.2
2022-11-16T06:15:53.221Z,20.4
2022-11-16T06:17:50.524Z,12.4
2022-11-16T06:19:53.650Z,16.2
2022-11-16T06:21:59.973Z,8.9
2022-11-16T06:24:03.133Z,9.6
2022-11-16T06:26:06.236Z,9.1
2022-11-16T06:28:09.369Z,13.9
2022-11-16T06:30:12.502Z,6.4
2022-11-16T06:32:15.605Z,10.2
2022-11-16T06:34:18.741Z,9.5
2022-11-16T06:38:28.222Z,8.6
2022-11-16T06:40:31.383Z,12.6
2022-11-16T06:46:40.753Z,18.6
2022-11-16T06:53:48.052Z,21.1
2022-11-16T06:59:11.542Z,28.5
2022-11-16T07:01:16.466Z,31.9
2022-11-16T07:03:20.306Z,25
2022-11-16T07:05:23.347Z,49.1
2022-11-16T07:08:16.025Z,32.6
2022-11-16T07:09:29.263Z,35.5
2022-11-16T07:10:27.311Z,39.9
2022-11-16T07:14:30.925Z,36.2
2022-11-16T07:16:34.030Z,35.9
2022-11-16T07:18:40.374Z,47.8
2022-11-16T07:20:43.509Z,34.4
2022-11-16T07:22:46.613Z,38.4
2022-11-16T07:24:49.744Z,33.6
2022-11-16T07:26:52.869Z,77.1
2022-11-16T07:28:55.991Z,41.4
2022-11-16T07:33:05.445Z,46.4
2022-11-16T07:35:08.562Z,51.3
2022-11-16T07:37:11.662Z,54.1
2022-11-16T07:39:14.790Z,61.3
2022-11-16T07:41:17.904Z,65
2022-11-16T07:43:21.012Z,47.1
2022-11-16T07:45:24.135Z,38.9
2022-11-16T07:47:30.460Z,39.7
2022-11-16T07:49:33.573Z,48.9
2022-11-16T07:55:42.921Z,41.9
2022-11-16T08:01:55.516Z,39.3
2022-11-16T08:03:58.606Z,26.1
2022-11-16T08:06:01.706Z,41.1
2022-11-16T08:07:04.931Z,39.9
2022-11-16T08:09:07.999Z,25.5
2022-11-16T08:11:11.108Z,41.8
2022-11-16T08:13:14.205Z,30
2022-11-16T08:15:20.558Z,27.9
2022-11-16T08:17:23.670Z,22.6
2022-11-16T08:19:26.794Z,19.7
2022-11-16T08:21:29.908Z,23.4
2022-11-16T08:23:33.028Z,37.6
2022-11-16T08:25:36.169Z,19.7
2022-11-16T08:27:39.282Z,11.3
2022-11-16T08:29:45.582Z,18.6
2022-11-16T08:31:48.704Z,10.1
2022-11-16T08:33:51.828Z,15.6
2022-11-16T08:35:54.920Z,21.2
2022-11-16T08:37:58.053Z,6.9
2022-11-16T08:40:01.165Z,18.4
2022-11-16T08:42:04.252Z,13.6
2022-11-16T08:44:10.590Z,7.8
2022-11-16T08:46:13.747Z,23.4
2022-11-16T08:48:16.856Z,25.1
2022-11-16T08:50:19.969Z,12.5
2022-11-16T08:52:23.080Z,8.6
2022-11-16T08:54:26.187Z,9.4
2022-11-16T08:56:29.303Z,17.6
2022-11-16T08:58:35.875Z,3.2
2022-11-16T09:00:38.929Z,14.9
2022-11-16T09:02:41.876Z,15.7
2022-11-16T09:05:11.671Z,13.1
2022-11-16T09:07:14.825Z,10.1
2022-11-16T09:11:24.242Z,18.5
2022-11-16T09:15:30.501Z,8.8
2022-11-16T09:17:33.623Z,9.6
2022-11-16T09:19:36.763Z,6.7
2022-11-16T09:21:39.890Z,7.6
2022-11-16T09:23:43.016Z,6.4
2022-11-16T09:25:49.328Z,7.2
2022-11-16T09:27:52.480Z,4
2022-11-16T09:29:55.592Z,10.4
2022-11-16T09:31:58.715Z,37.8
2022-11-16T09:34:01.841Z,5.4
2022-11-16T09:36:04.975Z,10.9
2022-11-16T09:38:08.098Z,14.4
2022-11-16T09:40:14.437Z,15.3
2022-11-16T09:42:17.560Z,9.9
2022-11-16T09:44:20.688Z,11
2022-11-16T09:46:23.797Z,16.8
2022-11-16T09:48:26.951Z,8.9
2022-11-16T09:50:30.058Z,12.4
2022-11-16T09:52:33.197Z,6.5
2022-11-16T09:54:39.526Z,20.6
2022-11-16T09:56:42.820Z,35.7
2022-11-16T09:58:45.774Z,28.7
2022-11-16T10:01:52.078Z,11.7
2022-11-16T10:03:55.179Z,15.5
2022-11-16T10:05:58.328Z,5.7
2022-11-16T10:08:06.217Z,5.3
2022-11-16T10:12:12.477Z,13.1
2022-11-16T10:14:15.590Z,12.4
2022-11-16T10:16:18.730Z,10.9
2022-11-16T10:18:21.871Z,6.2
2022-11-16T10:20:30.305Z,24.8
2022-11-16T10:22:31.353Z,8.3
2022-11-16T10:28:40.758Z,18.7
2022-11-16T10:30:43.892Z,8.1
2022-11-16T10:32:47.011Z,4.5
2022-11-16T10:34:50.162Z,4.9
2022-11-16T10:36:56.509Z,11.5
2022-11-16T10:38:59.630Z,11.6
2022-11-16T10:41:02.741Z,3
2022-11-16T10:43:05.885Z,12.5
2022-11-16T10:45:09.024Z,13.2
2022-11-16T10:51:21.662Z,4.5
2022-11-16T10:53:24.776Z,6.4
2022-11-16T10:55:27.931Z,3.4
2022-11-16T10:56:31.088Z,4.7
2022-11-16T10:58:34.120Z,21.2
2022-11-16T11:00:37.303Z,20
2022-11-16T11:02:40.287Z,14.1
2022-11-16T11:04:46.462Z,15.2
2022-11-16T11:06:49.520Z,33.2
2022-11-16T11:08:52.513Z,12
2022-11-16T11:10:55.548Z,14.2
2022-11-16T11:12:58.580Z,27.1
2022-11-16T11:15:01.614Z,23.7
2022-11-16T11:17:04.639Z,6.2
2022-11-16T11:19:10.814Z,15
2022-11-16T11:21:13.836Z,5.2
2022-11-16T11:23:16.882Z,2.8
2022-11-16T11:25:19.907Z,9.6
2022-11-16T11:27:22.940Z,14.3
2022-11-16T11:29:25.990Z,3.7
2022-11-16T11:31:29.020Z,17.2
2022-11-16T11:33:35.562Z,10.2
2022-11-16T11:35:38.211Z,5.1
2022-11-16T11:37:41.243Z,13.2
2022-11-16T11:39:44.370Z,9.8
2022-11-16T11:41:47.331Z,6.7
2022-11-16T11:45:53.389Z,17.9
2022-11-16T11:50:02.576Z,8.2
2022-11-16T11:52:05.610Z,7.2
2022-11-16T11:53:08.676Z,4.9
2022-11-16T11:55:11.692Z,7.4
2022-11-16T11:57:14.733Z,7.1
2022-11-16T11:59:17.772Z,5
2022-11-16T12:01:25.770Z,18.5
2022-11-16T12:03:26.947Z,15.5
2022-11-16T12:05:29.963Z,6.5
2022-11-16T12:07:33.094Z,3.5
2022-11-16T12:09:36.023Z,15.5
2022-11-16T12:11:39.053Z,7.8
2022-11-16T12:13:42.077Z,18.7
2022-11-16T12:15:48.198Z,11
2022-11-16T12:17:51.220Z,27
2022-11-16T12:19:54.239Z,13.3
2022-11-16T12:21:57.282Z,23.8
2022-11-16T12:24:00.320Z,10.4
2022-11-16T12:26:03.339Z,5.4
2022-11-16T12:28:06.362Z,6.8
2022-11-16T12:30:12.645Z,7.6
2022-11-16T12:32:15.540Z,14.5
2022-11-16T12:34:18.583Z,18.5
2022-11-16T12:36:21.619Z,4.3
2022-11-16T12:38:26.367Z,4.8
2022-11-16T12:40:27.650Z,7.4
2022-11-16T12:42:30.660Z,8.4
2022-11-16T12:48:42.888Z,6.3
2022-11-16T12:51:12.383Z,11.7
2022-11-16T12:53:15.439Z,6
2022-11-16T12:55:25.872Z,8.5
2022-11-16T12:57:24.623Z,8.1
2022-11-16T12:59:27.648Z,9
2022-11-16T13:01:30.811Z,1.7
2022-11-16T13:03:34.242Z,14.2
2022-11-16T13:07:40.154Z,16.3
2022-11-16T13:09:43.236Z,18.6
2022-11-16T13:11:49.597Z,16.2
2022-11-16T13:13:53.564Z,7.6
2022-11-16T13:15:55.888Z,8.6
2022-11-16T13:17:59.029Z,14.5
2022-11-16T13:20:02.150Z,6
2022-11-16T13:22:05.274Z,13.4
2022-11-16T13:26:14.858Z,7.7
2022-11-16T13:28:17.916Z,11.1
2022-11-16T13:30:21.052Z,13.4
2022-11-16T13:32:24.186Z,3.3
2022-11-16T13:34:27.340Z,4.7
2022-11-16T13:36:30.483Z,12.7
2022-11-16T13:38:33.853Z,28.7
2022-11-16T13:42:43.105Z,24.4
2022-11-16T13:44:51.427Z,10.8
2022-11-16T13:47:52.572Z,12.7
2022-11-16T13:49:55.714Z,18
2022-11-16T13:52:11.572Z,3
2022-11-16T13:54:43.996Z,14.3
2022-11-16T13:56:08.249Z,10.2
2022-11-16T13:58:11.384Z,23.8
2022-11-16T14:00:14.501Z,6.7
2022-11-16T14:04:20.766Z,3.6
2022-11-16T14:06:23.918Z,7.4
2022-11-16T14:08:30.285Z,23.5
2022-11-16T14:10:33.411Z,5.8
2022-11-16T14:12:36.563Z,3.9
2022-11-16T14:14:39.680Z,11.5
2022-11-16T14:16:42.819Z,11.5
2022-11-16T14:18:45.956Z,14.4
2022-11-16T14:20:49.092Z,4.6
2022-11-16T14:22:55.565Z,12.6
2022-11-16T14:24:58.567Z,18.8
2022-11-16T14:27:01.715Z,9.9
2022-11-16T14:29:04.842Z,12.9
2022-11-16T14:31:08.008Z,18.4
2022-11-16T14:33:11.137Z,11
2022-11-16T14:35:14.248Z,6.3
2022-11-16T14:37:20.604Z,11
2022-11-16T14:39:23.732Z,6.3
2022-11-16T14:41:26.884Z,2.2
2022-11-16T14:42:38.148Z,15.6
2022-11-16T14:44:33.174Z,6.4
2022-11-16T14:46:36.330Z,13.1
2022-11-16T14:48:39.452Z,8.3
2022-11-16T14:50:45.815Z,3.5
2022-11-16T14:52:48.973Z,3.3
2022-11-16T14:54:52.080Z,17.3
2022-11-16T14:56:55.216Z,5.6
2022-11-16T14:58:58.337Z,6.9
2022-11-16T15:01:01.495Z,18.4
2022-11-16T15:03:04.651Z,7.9
2022-11-16T15:05:10.974Z,6.6
2022-11-16T15:11:20.381Z,11.2
2022-11-16T15:13:23.520Z,2.4
2022-11-16T15:21:39.263Z,8.3
2022-11-16T15:23:42.400Z,3.8
2022-11-16T15:36:04.405Z,24.1
2022-11-16T15:38:07.517Z,15.8
2022-11-16T15:39:10.686Z,10.7
2022-11-16T15:41:13.839Z,12.9
2022-11-16T15:43:16.966Z,6.1
2022-11-16T15:45:20.090Z,7.4
2022-11-16T15:47:26.444Z,19.1
2022-11-16T15:49:29.595Z,12.3
2022-11-16T15:51:32.738Z,15.8
2022-11-16T15:53:36.243Z,14.8
2022-11-16T15:55:39.063Z,5.2
2022-11-16T15:57:46.472Z,16.7
2022-11-16T15:59:45.246Z,7.3
2022-11-16T16:01:51.598Z,9.3
2022-11-16T16:03:56.313Z,7.5
2022-11-16T16:05:59.387Z,12.7
2022-11-16T16:08:02.530Z,9.7
2022-11-16T16:10:05.637Z,10.9
2022-11-16T16:12:08.766Z,8
2022-11-16T16:14:11.908Z,10.4
2022-11-16T16:16:18.225Z,10.9
2022-11-16T16:18:21.343Z,8.3
2022-11-16T16:20:24.458Z,7.4
2022-11-16T16:22:27.600Z,5.7
2022-11-16T16:24:30.709Z,12.4
2022-11-16T16:32:46.442Z,11.4
2022-11-16T16:34:49.569Z,24.2
2022-11-16T16:37:19.360Z,12
2022-11-16T16:39:22.496Z,10.5
2022-11-16T16:43:32.334Z,15.4
2022-11-16T16:45:35.090Z,6
2022-11-16T16:47:38.255Z,2.8
2022-11-16T16:49:41.372Z,9
2022-11-16T16:51:44.499Z,7
2022-11-16T16:53:47.627Z,13.3
2022-11-16T16:55:50.738Z,17.8
2022-11-16T16:57:57.058Z,22.1
2022-11-16T17:00:00.211Z,16.6
2022-11-16T17:02:03.329Z,28.8
2022-11-16T17:04:06.434Z,30.5
2022-11-16T17:06:09.572Z,12
2022-11-16T17:08:12.697Z,23.4
2022-11-16T17:10:15.821Z,16.2
2022-11-16T17:12:22.162Z,16.3
2022-11-16T17:14:25.297Z,14.4
2022-11-16T17:16:28.426Z,6.8
2022-11-16T17:18:31.562Z,6.5
2022-11-16T17:20:34.694Z,12.6
2022-11-16T17:22:37.797Z,9
2022-11-16T17:24:40.944Z,21.7
2022-11-16T17:26:47.253Z,7.9
2022-11-16T17:30:53.528Z,16.7
2022-11-16T17:31:56.679Z,19.1
2022-11-16T17:33:59.810Z,5.2
2022-11-16T17:36:02.982Z,8.8
2022-11-16T17:38:06.105Z,10.6
2022-11-16T17:40:12.437Z,15.5
2022-11-16T17:42:15.597Z,18.2
2022-11-16T17:44:21.606Z,7.7
2022-11-16T17:46:21.799Z,10.5
2022-11-16T17:48:24.940Z,7.4
2022-11-16T17:50:28.048Z,7.4
2022-11-16T17:52:31.189Z,21.1
2022-11-16T17:54:37.513Z,19.7
2022-11-16T17:56:40.631Z,16.5
2022-11-16T18:02:49.993Z,3.5
2022-11-16T18:04:53.101Z,21.3
2022-11-16T18:09:02.572Z,9.3
2022-11-16T18:11:05.692Z,11.5
2022-11-16T18:19:18.183Z,20.4
2022-11-16T18:23:27.651Z,9.5
2022-11-16T18:25:30.773Z,8.7
2022-11-16T18:28:37.071Z,25.1
2022-11-16T18:30:40.200Z,19.2
2022-11-16T18:32:43.309Z,20.1
2022-11-16T18:34:46.422Z,17.6
2022-11-16T18:36:52.769Z,25.9
2022-11-16T18:40:59.026Z,9.3
2022-11-16T18:43:02.144Z,8.1
2022-11-16T18:47:08.381Z,20.2
2022-11-16T18:49:11.534Z,8.2
2022-11-16T18:51:17.843Z,11.1
2022-11-16T18:59:30.321Z,14.7
2022-11-16T19:05:42.893Z,19.6
2022-11-16T19:09:49.127Z,26
2022-11-16T19:11:52.251Z,12.5
2022-11-16T19:15:58.476Z,14.3
2022-11-16T19:18:20.440Z,10
2022-11-16T19:20:07.932Z,25.1
2022-11-16T19:22:11.061Z,26
2022-11-16T19:25:17.345Z,12.3
2022-11-16T19:27:20.478Z,21.9
2022-11-16T19:29:23.598Z,13.7
2022-11-16T19:31:26.703Z,21.6
2022-11-16T19:35:36.131Z,18.9
2022-11-16T19:37:39.253Z,15.4
2022-11-16T19:39:42.392Z,25.6
2022-11-16T19:41:45.523Z,14.4
2022-11-16T19:43:48.641Z,10.4
2022-11-16T19:45:51.821Z,8
2022-11-16T19:47:58.091Z,21.7
2022-11-16T19:50:01.200Z,9.5
2022-11-16T19:52:04.338Z,12.6
2022-11-16T19:54:07.469Z,7.6
2022-11-16T19:56:10.581Z,6.3
2022-11-16T19:58:13.725Z,15.7
2022-11-16T20:00:16.832Z,8.3
2022-11-16T20:10:35.644Z,13.2
2022-11-16T20:12:38.776Z,8.3
2022-11-16T20:14:41.983Z,22.2
2022-11-16T20:16:48.256Z,6.6
2022-11-16T20:20:54.515Z,8.6
2022-11-16T20:23:24.321Z,9.6
2022-11-16T20:25:27.443Z,14.1
2022-11-16T20:27:30.565Z,9.4
2022-11-16T20:29:36.928Z,12.3
2022-11-16T20:31:40.053Z,16.3
2022-11-16T20:33:43.200Z,10.8
2022-11-16T20:35:46.319Z,10.6
2022-11-16T20:37:49.441Z,11.9
2022-11-16T20:39:52.577Z,4.6
2022-11-16T20:41:55.726Z,16
2022-11-16T20:44:02.052Z,8.8
2022-11-16T20:46:05.184Z,13.3
2022-11-16T20:48:08.313Z,10.8
2022-11-16T20:50:11.421Z,14.1
2022-11-16T20:52:14.559Z,18
2022-11-16T20:54:17.694Z,12.8
2022-11-16T20:56:20.827Z,12.8
2022-11-16T20:58:27.166Z,4.4
2022-11-16T21:00:30.268Z,8.6
2022-11-16T21:04:36.537Z,20.1
2022-11-16T21:08:42.805Z,10.9
2022-11-16T21:10:45.918Z,4.8
2022-11-16T21:12:52.284Z,14.8
2022-11-16T21:14:55.371Z,6.8
2022-11-16T21:16:58.489Z,13.2
2022-11-16T21:20:26.423Z,5.7
2022-11-16T21:22:07.937Z,10.7
2022-11-16T21:26:17.362Z,4.9
2022-11-16T21:28:25.343Z,3
2022-11-16T21:32:26.727Z,4.3
2022-11-16T21:34:29.868Z,23.1
2022-11-16T21:36:32.987Z,4.2
2022-11-16T21:38:36.097Z,17
2022-11-16T21:40:42.453Z,19.1
2022-11-16T21:42:45.547Z,3.1
2022-11-16T21:44:48.667Z,3.8
2022-11-16T21:46:51.811Z,13.1
2022-11-16T21:50:58.032Z,15.3
2022-11-16T21:53:01.162Z,7.5
2022-11-16T21:55:07.497Z,7.7
2022-11-16T21:57:10.638Z,3.7
2022-11-16T21:59:15.353Z,7.5
2022-11-16T22:01:18.457Z,4.9
2022-11-16T22:03:21.542Z,7.3
2022-11-16T22:05:24.656Z,19.3
2022-11-16T22:07:27.821Z,8.3
2022-11-16T22:09:34.128Z,16
2022-11-16T22:11:37.267Z,3.5
2022-11-16T22:13:40.378Z,15.9
2022-11-16T22:18:49.811Z,16.5
2022-11-16T22:20:52.906Z,9.7
2022-11-16T22:22:59.230Z,10.1
2022-11-16T22:25:02.360Z,4.3
2022-11-16T22:27:05.482Z,6.9
2022-11-16T22:29:08.624Z,8.5
2022-11-16T22:31:11.749Z,12.4
2022-11-16T22:33:14.872Z,9.5
2022-11-16T22:35:17.977Z,4.6
2022-11-16T22:37:24.299Z,21.6
2022-11-16T22:39:27.441Z,10.8
2022-11-16T22:41:30.538Z,6.5
2022-11-16T22:43:34.130Z,17.9
2022-11-16T22:45:36.796Z,2.9
2022-11-16T22:47:39.932Z,4.8
2022-11-16T22:49:43.037Z,5.7
2022-11-16T22:51:49.402Z,7.4
2022-11-16T22:53:52.523Z,3.7
2022-11-16T22:55:55.745Z,1.6
2022-11-16T22:57:58.785Z,6.1
2022-11-16T23:00:01.962Z,14.4
2022-11-16T23:02:05.031Z,4.4
2022-11-16T23:04:08.170Z,3.9
2022-11-16T23:06:14.504Z,18.9
2022-11-16T23:08:17.621Z,5.4
2022-11-16T23:10:20.764Z,4.5
2022-11-16T23:15:30.191Z,6.5
2022-11-16T23:17:33.327Z,3.9
2022-11-16T23:19:39.665Z,5.4
2022-11-16T23:25:49.041Z,3.5
2022-11-16T23:27:52.170Z,10.9
2022-11-16T23:29:55.315Z,15.5
2022-11-16T23:34:04.792Z,3.7
2022-11-16T23:36:07.912Z,11.5
2022-11-16T23:38:11.022Z,4.5
2022-11-16T23:40:14.153Z,9
2022-11-16T23:42:17.310Z,10.8
2022-11-16T23:46:23.530Z,3.9
2022-11-16T23:48:29.872Z,3.1
2022-11-16T23:50:33.010Z,21.5
2022-11-16T23:52:36.110Z,10.3
2022-11-16T23:54:39.233Z,17.2
2022-11-16T23:56:42.364Z,7.7
2022-11-16T23:58:45.480Z,18.9
